createdAt,value
2022-11-29T00:00:46.785Z,8.70
2022-11-29T00:01:46.797Z,9.10
2022-11-29T00:02:46.825Z,9.40
2022-11-29T00:03:46.706Z,9.20
2022-11-29T00:04:46.688Z,9.40
2022-11-29T00:05:46.690Z,9.50
2022-11-29T00:06:46.647Z,8.80
2022-11-29T00:07:46.680Z,8.60
2022-11-29T00:08:46.608Z,8.80
2022-11-29T00:09:46.590Z,8.90
2022-11-29T00:10:46.602Z,8.90
2022-11-29T00:11:46.564Z,8.80
2022-11-29T00:12:46.537Z,9.00
2022-11-29T00:13:46.520Z,8.80
2022-11-29T00:14:46.875Z,9.20
2022-11-29T00:15:46.512Z,9.20
2022-11-29T00:16:46.562Z,8.40
2022-11-29T00:17:46.449Z,8.50
2022-11-29T00:18:46.429Z,8.60
2022-11-29T00:19:46.412Z,8.50
2022-11-29T00:20:46.421Z,8.50
2022-11-29T00:21:46.377Z,8.50
2022-11-29T00:22:46.354Z,8.70
2022-11-29T00:23:46.336Z,8.10
2022-11-29T00:24:47.325Z,8.80
2022-11-29T00:25:46.343Z,8.30
2022-11-29T00:26:46.288Z,8.40
2022-11-29T00:27:46.268Z,7.90
2022-11-29T00:28:46.248Z,8.30
2022-11-29T00:29:46.230Z,7.70
2022-11-29T00:30:46.259Z,8.20
2022-11-29T00:31:46.194Z,8.40
2022-11-29T00:32:46.173Z,7.60
2022-11-29T00:33:46.158Z,8.30
2022-11-29T00:34:46.271Z,7.60
2022-11-29T00:35:46.156Z,7.70
2022-11-29T00:36:46.108Z,7.90
2022-11-29T00:37:46.091Z,7.20
2022-11-29T00:38:46.076Z,7.30
2022-11-29T00:39:46.051Z,7.50
2022-11-29T00:40:46.059Z,7.40
2022-11-29T00:41:46.022Z,7.50
2022-11-29T00:42:45.999Z,7.30
2022-11-29T00:43:45.982Z,7.30
2022-11-29T00:44:46.141Z,7.30
2022-11-29T00:45:46.025Z,7.20
2022-11-29T00:46:45.931Z,7.00
2022-11-29T00:47:45.912Z,7.40
2022-11-29T00:48:45.896Z,7.30
2022-11-29T00:49:45.877Z,7.50
2022-11-29T00:50:45.887Z,7.60
2022-11-29T00:51:45.848Z,7.50
2022-11-29T00:53:22.876Z,8.00
2022-11-29T00:53:45.810Z,8.00
2022-11-29T00:54:46.116Z,8.00
2022-11-29T00:55:45.806Z,8.10
2022-11-29T00:56:45.751Z,7.90
2022-11-29T00:57:46.744Z,8.10
2022-11-29T00:58:45.732Z,7.90
2022-11-29T00:59:45.705Z,8.30
2022-11-29T01:00:45.720Z,8.10
2022-11-29T01:01:45.745Z,8.00
2022-11-29T01:02:45.681Z,7.90
2022-11-29T01:03:45.641Z,8.30
2022-11-29T01:04:45.826Z,8.50
2022-11-29T01:05:45.640Z,8.30
2022-11-29T01:06:45.591Z,8.60
2022-11-29T01:07:45.614Z,8.40
2022-11-29T01:08:45.551Z,8.60
2022-11-29T01:09:45.529Z,8.80
2022-11-29T01:10:46.558Z,8.80
2022-11-29T01:11:45.500Z,9.10
2022-11-29T01:12:45.477Z,9.00
2022-11-29T01:13:45.469Z,8.80
2022-11-29T01:14:45.689Z,9.10
2022-11-29T01:15:45.452Z,8.90
2022-11-29T01:16:45.443Z,8.40
2022-11-29T01:17:45.390Z,9.50
2022-11-29T01:18:45.366Z,9.50
2022-11-29T01:19:50.584Z,9.20
2022-11-29T01:20:47.358Z,9.70
2022-11-29T01:21:45.319Z,9.10
2022-11-29T01:22:45.300Z,9.70
2022-11-29T01:23:45.279Z,10.20
2022-11-29T01:24:45.556Z,9.50
2022-11-29T01:25:45.274Z,10.20
2022-11-29T01:26:45.223Z,9.80
2022-11-29T01:27:45.208Z,9.40
2022-11-29T01:28:45.193Z,10.40
2022-11-29T01:29:45.173Z,10.40
2022-11-29T01:30:45.178Z,11.10
2022-11-29T01:31:45.163Z,10.40
2022-11-29T01:32:45.116Z,10.40
2022-11-29T01:33:45.095Z,10.50
2022-11-29T01:34:45.344Z,10.70
2022-11-29T01:35:45.069Z,10.80
2022-11-29T01:36:45.062Z,10.80
2022-11-29T01:37:45.025Z,10.40
2022-11-29T01:38:45.003Z,10.80
2022-11-29T01:39:44.984Z,11.00
2022-11-29T01:40:44.965Z,11.10
2022-11-29T01:41:44.975Z,11.40
2022-11-29T01:42:44.937Z,11.10
2022-11-29T01:43:44.912Z,11.50
2022-11-29T01:44:45.213Z,11.60
2022-11-29T01:45:44.919Z,11.20
2022-11-29T01:46:44.888Z,11.50
2022-11-29T01:47:44.850Z,11.50
2022-11-29T01:48:44.832Z,12.10
2022-11-29T01:49:44.804Z,12.90
2022-11-29T01:50:44.786Z,11.10
2022-11-29T01:51:44.794Z,11.20
2022-11-29T01:52:44.745Z,12.30
2022-11-29T01:53:44.737Z,11.40
2022-11-29T01:54:45.070Z,12.90
2022-11-29T01:55:44.761Z,12.60
2022-11-29T01:56:44.699Z,11.30
2022-11-29T01:57:44.658Z,13.70
2022-11-29T01:58:44.645Z,11.90
2022-11-29T01:59:44.622Z,12.50
2022-11-29T02:00:44.606Z,12.10
2022-11-29T02:01:44.651Z,12.90
2022-11-29T02:02:44.594Z,12.30
2022-11-29T02:03:44.550Z,12.00
2022-11-29T02:04:44.931Z,12.00
2022-11-29T02:05:44.514Z,12.20
2022-11-29T02:06:44.526Z,12.00
2022-11-29T02:08:24.378Z,11.90
2022-11-29T02:08:44.480Z,14.10
2022-11-29T02:10:25.315Z,13.90
2022-11-29T02:11:25.336Z,14.00
2022-11-29T02:11:44.436Z,13.50
2022-11-29T02:13:24.309Z,12.50
2022-11-29T02:13:59.280Z,13.00
2022-11-29T02:14:44.808Z,12.70
2022-11-29T02:15:44.406Z,12.10
2022-11-29T02:16:44.361Z,11.90
2022-11-29T02:17:44.315Z,12.80
2022-11-29T02:18:44.296Z,12.80
2022-11-29T02:19:44.276Z,12.00
2022-11-29T02:20:44.265Z,12.00
2022-11-29T02:21:44.265Z,11.90
2022-11-29T02:22:44.223Z,11.60
2022-11-29T02:23:44.211Z,13.00
2022-11-29T02:24:44.463Z,11.80
2022-11-29T02:25:44.171Z,12.20
2022-11-29T02:26:45.071Z,12.10
2022-11-29T02:27:44.183Z,13.00
2022-11-29T02:28:44.112Z,12.00
2022-11-29T02:29:44.093Z,12.70
2022-11-29T02:30:44.151Z,13.80
2022-11-29T02:31:44.083Z,11.70
2022-11-29T02:33:23.948Z,11.60
2022-11-29T02:33:44.026Z,13.30
2022-11-29T02:34:44.499Z,13.00
2022-11-29T02:35:43.991Z,13.10
2022-11-29T02:36:44.540Z,12.50
2022-11-29T02:37:43.955Z,12.20
2022-11-29T02:38:43.935Z,12.80
2022-11-29T02:39:43.941Z,12.60
2022-11-29T02:40:43.896Z,12.30
2022-11-29T02:41:43.904Z,11.40
2022-11-29T02:42:43.889Z,12.00
2022-11-29T02:43:43.842Z,14.30
2022-11-29T02:44:44.158Z,12.60
2022-11-29T02:45:43.959Z,12.80
2022-11-29T02:46:43.815Z,11.90
2022-11-29T02:47:43.792Z,12.30
2022-11-29T02:48:44.574Z,12.90
2022-11-29T02:49:43.738Z,13.00
2022-11-29T02:50:43.723Z,12.50
2022-11-29T02:52:20.871Z,12.20
2022-11-29T02:52:43.688Z,14.00
2022-11-29T02:53:43.671Z,12.60
2022-11-29T02:54:44.033Z,12.30
2022-11-29T02:55:43.636Z,12.80
2022-11-29T02:56:43.650Z,13.10
2022-11-29T02:57:43.635Z,12.60
2022-11-29T02:59:24.465Z,13.30
2022-11-29T02:59:43.570Z,13.60
2022-11-29T03:00:43.552Z,12.90
2022-11-29T03:01:43.574Z,13.20
2022-11-29T03:02:43.558Z,13.50
2022-11-29T03:03:43.509Z,12.40
2022-11-29T03:04:43.935Z,13.50
2022-11-29T03:05:43.472Z,13.10
2022-11-29T03:06:43.473Z,13.40
2022-11-29T03:07:43.465Z,13.20
2022-11-29T03:08:43.412Z,12.20
2022-11-29T03:09:43.397Z,13.00
2022-11-29T03:10:43.380Z,13.80
2022-11-29T03:11:43.395Z,13.10
2022-11-29T03:12:43.347Z,13.60
2022-11-29T03:13:43.331Z,13.90
2022-11-29T03:14:43.651Z,12.90
2022-11-29T03:15:43.311Z,13.30
2022-11-29T03:16:43.752Z,14.10
2022-11-29T03:17:44.254Z,15.20
2022-11-29T03:18:43.256Z,13.90
2022-11-29T03:19:43.215Z,13.50
2022-11-29T03:20:43.201Z,14.60
2022-11-29T03:21:43.206Z,16.10
2022-11-29T03:22:43.163Z,14.40
2022-11-29T03:23:43.143Z,14.70
2022-11-29T03:24:43.452Z,16.00
2022-11-29T03:25:43.107Z,15.30
2022-11-29T03:26:43.125Z,14.70
2022-11-29T03:27:43.071Z,13.40
2022-11-29T03:28:43.054Z,13.60
2022-11-29T03:29:43.039Z,14.40
2022-11-29T03:30:43.035Z,12.60
2022-11-29T03:31:43.000Z,12.20
2022-11-29T03:32:43.006Z,12.60
2022-11-29T03:33:42.961Z,13.30
2022-11-29T03:34:43.432Z,12.80
2022-11-29T03:35:42.924Z,13.00
2022-11-29T03:36:42.929Z,12.50
2022-11-29T03:37:42.892Z,13.70
2022-11-29T03:38:42.864Z,13.30
2022-11-29T03:39:42.853Z,16.00
2022-11-29T03:40:42.834Z,15.30
2022-11-29T03:41:42.848Z,15.60
2022-11-29T03:42:42.825Z,16.00
2022-11-29T03:43:42.784Z,14.00
2022-11-29T03:44:42.927Z,13.80
2022-11-29T03:45:42.749Z,16.30
2022-11-29T03:46:42.804Z,13.70
2022-11-29T03:47:42.713Z,13.00
2022-11-29T03:48:42.700Z,14.30
2022-11-29T03:49:42.677Z,15.80
2022-11-29T03:50:42.664Z,15.10
2022-11-29T03:51:42.638Z,16.80
2022-11-29T03:52:42.645Z,17.30
2022-11-29T03:53:42.602Z,16.60
2022-11-29T03:54:42.975Z,18.60
2022-11-29T03:55:42.572Z,14.70
2022-11-29T03:56:42.574Z,15.50
2022-11-29T03:57:42.530Z,14.10
2022-11-29T03:58:42.517Z,14.60
2022-11-29T03:59:42.500Z,14.90
2022-11-29T04:01:19.637Z,17.90
2022-11-29T04:01:42.543Z,13.30
2022-11-29T04:02:42.518Z,12.10
2022-11-29T04:03:42.434Z,14.80
2022-11-29T04:04:42.711Z,13.20
2022-11-29T04:05:43.393Z,14.10
2022-11-29T04:06:42.411Z,16.50
2022-11-29T04:07:42.417Z,13.10
2022-11-29T04:08:42.335Z,12.40
2022-11-29T04:09:42.317Z,16.90
2022-11-29T04:10:42.301Z,19.20
2022-11-29T04:11:42.284Z,20.30
2022-11-29T04:12:42.303Z,14.70
2022-11-29T04:13:42.246Z,18.90
2022-11-29T04:14:42.479Z,14.70
2022-11-29T04:15:42.232Z,15.70
2022-11-29T04:16:42.224Z,18.80
2022-11-29T04:17:42.175Z,13.20
2022-11-29T04:18:42.166Z,15.80
2022-11-29T04:19:42.164Z,14.20
2022-11-29T04:20:47.831Z,12.40
2022-11-29T04:21:44.134Z,15.80
2022-11-29T04:22:42.089Z,13.00
2022-11-29T04:24:19.186Z,10.60
2022-11-29T04:24:42.238Z,15.00
2022-11-29T04:25:42.042Z,12.40
2022-11-29T04:26:42.022Z,13.90
2022-11-29T04:28:19.135Z,11.60
2022-11-29T04:28:41.994Z,12.10
2022-11-29T04:29:41.974Z,11.20
2022-11-29T04:31:21.905Z,12.70
2022-11-29T04:31:41.947Z,12.90
2022-11-29T04:32:41.945Z,14.90
2022-11-29T04:33:41.903Z,19.20
2022-11-29T04:34:42.324Z,14.30
2022-11-29T04:35:41.875Z,11.70
2022-11-29T04:36:41.856Z,16.90
2022-11-29T04:37:41.859Z,15.60
2022-11-29T04:39:18.901Z,13.40
2022-11-29T04:39:41.803Z,13.40
2022-11-29T04:40:41.788Z,12.30
2022-11-29T04:42:18.898Z,12.50
2022-11-29T04:42:41.756Z,13.10
2022-11-29T04:43:41.733Z,11.00
2022-11-29T04:44:41.839Z,11.20
2022-11-29T04:45:41.699Z,12.30
2022-11-29T04:47:18.769Z,11.70
2022-11-29T04:47:41.669Z,11.40
2022-11-29T04:48:41.650Z,12.70
2022-11-29T04:49:41.635Z,12.70
2022-11-29T04:50:41.629Z,12.80
2022-11-29T04:52:21.544Z,13.10
2022-11-29T04:52:41.587Z,13.20
2022-11-29T04:53:41.566Z,13.70
2022-11-29T04:54:41.564Z,12.70
2022-11-29T04:55:41.528Z,14.80
2022-11-29T04:56:42.517Z,15.10
2022-11-29T04:57:41.523Z,14.20
2022-11-29T04:58:41.480Z,13.40
2022-11-29T05:00:18.547Z,14.00
2022-11-29T05:01:18.592Z,13.50
2022-11-29T05:01:41.452Z,13.30
2022-11-29T05:03:22.326Z,12.50
2022-11-29T05:03:41.408Z,13.00
2022-11-29T05:04:41.471Z,14.10
2022-11-29T05:05:41.376Z,14.10
2022-11-29T05:06:41.361Z,15.60
2022-11-29T05:07:41.442Z,15.60
2022-11-29T05:08:41.356Z,14.10
2022-11-29T05:09:41.305Z,14.50
2022-11-29T05:10:41.284Z,13.90
2022-11-29T05:11:41.269Z,15.10
2022-11-29T05:12:41.269Z,13.30
2022-11-29T05:13:41.242Z,12.80
2022-11-29T05:14:41.258Z,12.70
2022-11-29T05:15:41.305Z,11.70
2022-11-29T05:16:41.181Z,11.30
2022-11-29T05:17:41.186Z,12.50
2022-11-29T05:18:41.145Z,11.40
2022-11-29T05:19:41.139Z,10.50
2022-11-29T05:20:41.111Z,15.00
2022-11-29T05:21:41.088Z,12.50
2022-11-29T05:22:41.097Z,15.50
2022-11-29T05:23:41.055Z,9.90
2022-11-29T05:24:41.045Z,10.60
2022-11-29T05:25:41.035Z,12.90
2022-11-29T05:26:41.015Z,9.90
2022-11-29T05:27:41.011Z,11.60
2022-11-29T05:28:40.962Z,11.90
2022-11-29T05:29:40.951Z,10.90
2022-11-29T05:30:40.932Z,12.00
2022-11-29T05:31:40.914Z,11.30
2022-11-29T05:32:40.927Z,12.80
2022-11-29T05:33:40.883Z,14.10
2022-11-29T05:34:40.867Z,14.00
2022-11-29T05:35:40.845Z,11.00
2022-11-29T05:36:40.840Z,13.20
2022-11-29T05:37:40.855Z,11.70
2022-11-29T05:38:40.794Z,13.50
2022-11-29T05:39:40.773Z,12.00
2022-11-29T05:40:40.757Z,12.90
2022-11-29T05:41:40.740Z,13.90
2022-11-29T05:42:40.749Z,12.20
2022-11-29T05:43:40.709Z,14.40
2022-11-29T05:44:40.697Z,13.90
2022-11-29T05:45:40.670Z,15.10
2022-11-29T05:47:17.737Z,13.10
2022-11-29T05:47:40.666Z,15.70
2022-11-29T05:48:40.625Z,15.40
2022-11-29T05:49:40.603Z,15.60
2022-11-29T05:50:40.584Z,12.30
2022-11-29T05:51:40.571Z,12.80
2022-11-29T05:52:40.573Z,9.90
2022-11-29T05:53:40.531Z,14.30
2022-11-29T05:54:40.526Z,15.30
2022-11-29T05:55:40.506Z,14.80
2022-11-29T05:56:40.470Z,13.40
2022-11-29T05:57:40.494Z,10.20
2022-11-29T05:58:40.444Z,10.70
2022-11-29T05:59:40.429Z,11.20
2022-11-29T06:00:40.420Z,9.70
2022-11-29T06:01:40.427Z,11.10
2022-11-29T06:02:40.456Z,13.10
2022-11-29T06:03:40.360Z,12.60
2022-11-29T06:04:40.335Z,11.80
2022-11-29T06:05:40.322Z,14.90
2022-11-29T06:06:40.307Z,15.50
2022-11-29T06:07:40.343Z,13.40
2022-11-29T06:08:40.263Z,11.00
2022-11-29T06:09:40.248Z,12.00
2022-11-29T06:10:40.242Z,16.90
2022-11-29T06:11:40.211Z,12.80
2022-11-29T06:12:40.221Z,17.00
2022-11-29T06:13:40.189Z,14.00
2022-11-29T06:14:40.161Z,15.50
2022-11-29T06:15:40.144Z,16.60
2022-11-29T06:16:40.127Z,14.80
2022-11-29T06:17:40.138Z,24.90
2022-11-29T06:18:40.091Z,34.10
2022-11-29T06:19:40.076Z,55.30
2022-11-29T06:20:40.051Z,63.40
2022-11-29T06:21:40.040Z,50.60
2022-11-29T06:22:40.049Z,43.70
2022-11-29T06:23:40.007Z,37.20
2022-11-29T06:24:40.079Z,30.60
2022-11-29T06:25:39.970Z,24.20
2022-11-29T06:26:39.950Z,22.50
2022-11-29T06:27:39.930Z,21.50
2022-11-29T06:28:39.942Z,17.80
2022-11-29T06:29:39.897Z,17.30
2022-11-29T06:30:39.882Z,14.10
2022-11-29T06:31:39.909Z,13.00
2022-11-29T06:32:39.843Z,14.40
2022-11-29T06:33:39.851Z,13.20
2022-11-29T06:34:39.807Z,11.90
2022-11-29T06:35:39.792Z,17.40
2022-11-29T06:36:39.772Z,16.80
2022-11-29T06:37:39.754Z,13.20
2022-11-29T06:38:39.761Z,17.20
2022-11-29T06:39:39.739Z,13.50
2022-11-29T06:40:39.708Z,11.10
2022-11-29T06:41:39.694Z,13.00
2022-11-29T06:42:39.666Z,15.80
2022-11-29T06:43:39.677Z,15.70
2022-11-29T06:44:39.628Z,17.10
2022-11-29T06:45:39.612Z,18.80
2022-11-29T06:46:39.640Z,15.70
2022-11-29T06:47:39.579Z,17.70
2022-11-29T06:48:39.592Z,19.40
2022-11-29T06:49:39.543Z,19.60
2022-11-29T06:50:39.528Z,21.60
2022-11-29T06:51:39.509Z,15.20
2022-11-29T06:52:39.493Z,17.20
2022-11-29T06:53:39.503Z,18.90
2022-11-29T06:54:39.468Z,13.10
2022-11-29T06:55:39.440Z,15.50
2022-11-29T06:56:40.897Z,12.90
2022-11-29T06:57:40.403Z,15.20
2022-11-29T06:58:39.410Z,15.60
2022-11-29T06:59:39.378Z,18.20
2022-11-29T07:00:39.396Z,14.00
2022-11-29T07:01:39.365Z,12.20
2022-11-29T07:02:39.327Z,15.50
2022-11-29T07:03:39.329Z,12.10
2022-11-29T07:04:45.468Z,12.90
2022-11-29T07:05:41.266Z,11.80
2022-11-29T07:06:39.261Z,12.60
2022-11-29T07:07:39.301Z,12.80
2022-11-29T07:08:39.245Z,13.80
2022-11-29T07:09:39.203Z,12.70
2022-11-29T07:10:39.179Z,14.80
2022-11-29T07:11:39.171Z,17.10
2022-11-29T07:12:39.150Z,17.70
2022-11-29T07:13:39.152Z,21.90
2022-11-29T07:14:39.115Z,13.30
2022-11-29T07:15:39.110Z,13.40
2022-11-29T07:16:39.132Z,18.90
2022-11-29T07:17:40.060Z,21.90
2022-11-29T07:18:39.069Z,22.50
2022-11-29T07:19:39.025Z,16.60
2022-11-29T07:20:39.024Z,16.10
2022-11-29T07:21:38.987Z,18.10
2022-11-29T07:22:38.973Z,12.80
2022-11-29T07:23:38.983Z,15.30
2022-11-29T07:24:38.954Z,19.80
2022-11-29T07:25:38.939Z,22.40
2022-11-29T07:26:38.907Z,21.80
2022-11-29T07:27:38.892Z,14.30
2022-11-29T07:28:38.895Z,18.40
2022-11-29T07:29:38.859Z,21.50
2022-11-29T07:30:38.837Z,19.50
2022-11-29T07:31:38.852Z,20.40
2022-11-29T07:32:38.801Z,21.10
2022-11-29T07:33:38.812Z,27.90
2022-11-29T07:34:38.791Z,26.80
2022-11-29T07:35:38.745Z,27.80
2022-11-29T07:36:38.732Z,38.40
2022-11-29T07:37:38.712Z,35.30
2022-11-29T07:38:39.692Z,42.30
2022-11-29T07:39:38.709Z,44.40
2022-11-29T07:40:38.665Z,33.50
2022-11-29T07:41:38.645Z,32.80
2022-11-29T07:42:38.633Z,38.30
2022-11-29T07:43:38.650Z,40.20
2022-11-29T07:44:38.600Z,38.80
2022-11-29T07:45:38.584Z,25.10
2022-11-29T07:46:38.591Z,24.40
2022-11-29T07:47:38.542Z,45.50
2022-11-29T07:48:38.553Z,41.30
2022-11-29T07:49:38.517Z,43.10
2022-11-29T07:50:38.492Z,29.60
2022-11-29T07:51:38.477Z,37.50
2022-11-29T07:52:38.458Z,44.70
2022-11-29T07:53:38.474Z,20.80
2022-11-29T07:54:38.425Z,21.60
2022-11-29T07:55:38.411Z,17.30
2022-11-29T07:56:38.389Z,18.30
2022-11-29T07:57:38.375Z,15.50
2022-11-29T07:58:38.401Z,21.30
2022-11-29T07:59:38.337Z,18.20
2022-11-29T08:00:38.361Z,15.70
2022-11-29T08:01:38.356Z,21.00
2022-11-29T08:02:38.356Z,15.80
2022-11-29T08:03:38.293Z,13.50
2022-11-29T08:04:38.249Z,15.10
2022-11-29T08:05:38.235Z,14.90
2022-11-29T08:06:38.215Z,13.10
2022-11-29T08:07:38.256Z,13.50
2022-11-29T08:08:43.741Z,17.10
2022-11-29T08:09:40.166Z,12.60
2022-11-29T08:10:38.149Z,13.50
2022-11-29T08:11:38.136Z,14.30
2022-11-29T08:12:38.119Z,12.10
2022-11-29T08:13:38.128Z,15.30
2022-11-29T08:14:38.084Z,13.50
2022-11-29T08:15:38.076Z,12.60
2022-11-29T08:16:38.144Z,12.50
2022-11-29T08:17:38.042Z,11.00
2022-11-29T08:18:38.042Z,12.20
2022-11-29T08:19:37.992Z,10.90
2022-11-29T08:20:38.028Z,11.80
2022-11-29T08:21:37.970Z,10.20
2022-11-29T08:22:37.939Z,9.80
2022-11-29T08:23:37.956Z,9.60
2022-11-29T08:24:37.908Z,9.60
2022-11-29T08:25:37.891Z,9.40
2022-11-29T08:26:37.873Z,10.10
2022-11-29T08:27:37.852Z,11.00
2022-11-29T08:28:37.866Z,14.70
2022-11-29T08:29:37.822Z,12.90
2022-11-29T08:30:37.809Z,9.80
2022-11-29T08:31:37.839Z,9.90
2022-11-29T08:32:37.769Z,9.10
2022-11-29T08:33:37.774Z,10.40
2022-11-29T08:34:37.728Z,10.30
2022-11-29T08:35:37.720Z,10.30
2022-11-29T08:36:37.695Z,9.70
2022-11-29T08:37:37.682Z,10.90
2022-11-29T08:38:37.685Z,9.50
2022-11-29T08:39:37.646Z,9.50
2022-11-29T08:40:37.623Z,9.00
2022-11-29T08:41:37.609Z,8.20
2022-11-29T08:42:37.590Z,9.00
2022-11-29T08:43:37.598Z,9.10
2022-11-29T08:44:37.552Z,9.20
2022-11-29T08:45:37.613Z,9.40
2022-11-29T08:46:37.514Z,9.30
2022-11-29T08:47:37.502Z,9.40
2022-11-29T08:48:37.488Z,8.90
2022-11-29T08:49:37.467Z,9.50
2022-11-29T08:50:37.476Z,9.10
2022-11-29T08:51:37.429Z,8.50
2022-11-29T08:52:37.414Z,9.10
2022-11-29T08:53:37.428Z,8.60
2022-11-29T08:54:37.379Z,8.60
2022-11-29T08:55:37.363Z,8.50
2022-11-29T08:57:40.735Z,8.30
2022-11-29T08:58:38.343Z,8.80
2022-11-29T08:59:37.301Z,8.70
2022-11-29T09:00:37.284Z,8.20
2022-11-29T09:01:37.315Z,7.50
2022-11-29T09:02:37.319Z,6.90
2022-11-29T09:03:37.255Z,6.00
2022-11-29T09:04:37.214Z,6.20
2022-11-29T09:05:37.228Z,6.60
2022-11-29T09:06:37.176Z,7.20
2022-11-29T09:07:37.224Z,7.10
2022-11-29T09:08:37.186Z,7.20
2022-11-29T09:09:37.137Z,7.20
2022-11-29T09:10:37.114Z,7.50
2022-11-29T09:11:37.109Z,7.20
2022-11-29T09:12:37.081Z,7.60
2022-11-29T09:13:37.090Z,7.50
2022-11-29T09:14:37.046Z,8.70
2022-11-29T09:15:37.059Z,7.90
2022-11-29T09:16:37.060Z,8.10
2022-11-29T09:17:36.995Z,8.70
2022-11-29T09:18:37.009Z,7.50
2022-11-29T09:19:36.967Z,8.00
2022-11-29T09:20:36.951Z,8.10
2022-11-29T09:21:36.936Z,8.30
2022-11-29T09:22:36.910Z,8.80
2022-11-29T09:23:36.897Z,9.20
2022-11-29T09:24:36.908Z,8.90
2022-11-29T09:25:36.865Z,9.30
2022-11-29T09:26:36.856Z,10.20
2022-11-29T09:27:36.839Z,9.90
2022-11-29T09:28:36.813Z,10.10
2022-11-29T09:29:36.835Z,13.10
2022-11-29T09:30:36.803Z,10.40
2022-11-29T09:31:36.813Z,9.00
2022-11-29T09:32:36.747Z,9.70
2022-11-29T09:33:36.727Z,10.10
2022-11-29T09:34:36.740Z,11.10
2022-11-29T09:35:36.691Z,9.80
2022-11-29T09:36:36.694Z,9.60
2022-11-29T09:37:36.658Z,9.50
2022-11-29T09:38:36.639Z,9.50
2022-11-29T09:39:36.654Z,10.70
2022-11-29T09:40:36.612Z,9.90
2022-11-29T09:41:36.797Z,11.40
2022-11-29T09:42:36.574Z,10.70
2022-11-29T09:43:36.559Z,10.00
2022-11-29T09:44:36.633Z,10.50
2022-11-29T09:45:36.562Z,10.90
2022-11-29T09:46:36.505Z,11.60
2022-11-29T09:47:36.487Z,12.00
2022-11-29T09:48:36.471Z,11.70
2022-11-29T09:49:36.480Z,11.60
2022-11-29T09:50:36.437Z,12.70
2022-11-29T09:51:41.143Z,12.00
2022-11-29T09:52:38.403Z,12.70
2022-11-29T09:53:36.390Z,13.70
2022-11-29T09:54:36.390Z,12.40
2022-11-29T09:55:36.350Z,15.10
2022-11-29T09:56:36.352Z,14.70
2022-11-29T09:57:36.315Z,13.90
2022-11-29T09:58:36.297Z,15.20
2022-11-29T09:59:36.306Z,13.60
2022-11-29T10:00:36.267Z,14.70
2022-11-29T10:01:36.296Z,14.10
2022-11-29T10:02:36.339Z,13.20
2022-11-29T10:03:36.212Z,12.60
2022-11-29T10:04:36.243Z,13.20
2022-11-29T10:05:36.172Z,13.10
2022-11-29T10:06:36.179Z,12.90
2022-11-29T10:07:36.190Z,12.40
2022-11-29T10:08:36.127Z,11.50
2022-11-29T10:09:36.140Z,12.10
2022-11-29T10:10:36.087Z,11.50
2022-11-29T10:11:36.096Z,12.40
2022-11-29T10:12:36.059Z,11.90
2022-11-29T10:13:36.036Z,12.60
2022-11-29T10:14:36.047Z,12.80
2022-11-29T10:15:36.003Z,12.60
2022-11-29T10:16:36.016Z,13.60
2022-11-29T10:17:35.968Z,14.20
2022-11-29T10:18:35.957Z,12.40
2022-11-29T10:19:35.959Z,11.30
2022-11-29T10:20:39.835Z,12.20
2022-11-29T10:21:37.902Z,11.00
2022-11-29T10:22:35.883Z,11.00
2022-11-29T10:23:35.868Z,10.90
2022-11-29T10:24:35.878Z,11.70
2022-11-29T10:25:35.831Z,12.00
2022-11-29T10:26:35.815Z,12.10
2022-11-29T10:27:35.802Z,12.50
2022-11-29T10:28:36.776Z,12.30
2022-11-29T10:29:35.787Z,12.90
2022-11-29T10:30:35.786Z,12.50
2022-11-29T10:31:35.728Z,12.50
2022-11-29T10:32:35.711Z,11.90
2022-11-29T10:33:35.696Z,13.30
2022-11-29T10:34:35.699Z,13.00
2022-11-29T10:35:35.655Z,12.20
2022-11-29T10:36:35.666Z,12.50
2022-11-29T10:37:35.611Z,13.10
2022-11-29T10:38:35.599Z,13.70
2022-11-29T10:39:35.607Z,13.70
2022-11-29T10:40:35.568Z,14.10
2022-11-29T10:41:35.544Z,12.20
2022-11-29T10:42:35.533Z,13.50
2022-11-29T10:43:35.512Z,14.20
2022-11-29T10:44:35.524Z,13.30
2022-11-29T10:45:35.488Z,14.00
2022-11-29T10:46:35.473Z,14.00
2022-11-29T10:47:35.458Z,14.80
2022-11-29T10:48:35.431Z,13.40
2022-11-29T10:49:35.440Z,13.70
2022-11-29T10:50:35.392Z,12.90
2022-11-29T10:51:35.375Z,13.10
2022-11-29T10:52:35.365Z,13.70
2022-11-29T10:53:35.348Z,13.10
2022-11-29T10:54:35.354Z,15.00
2022-11-29T10:55:35.309Z,14.40
2022-11-29T10:56:35.293Z,14.10
2022-11-29T10:57:35.275Z,14.90
2022-11-29T10:58:35.260Z,13.90
2022-11-29T10:59:35.271Z,14.40
2022-11-29T11:00:35.225Z,13.60
2022-11-29T11:01:35.227Z,13.70
2022-11-29T11:02:36.187Z,14.10
2022-11-29T11:03:35.173Z,15.10
2022-11-29T11:04:35.184Z,13.90
2022-11-29T11:05:35.164Z,14.40
2022-11-29T11:06:35.119Z,14.60
2022-11-29T11:07:35.238Z,15.00
2022-11-29T11:08:35.086Z,15.60
2022-11-29T11:09:35.097Z,14.80
2022-11-29T11:10:35.057Z,13.60
2022-11-29T11:11:35.044Z,13.80
2022-11-29T11:12:35.038Z,14.60
2022-11-29T11:13:34.999Z,15.80
2022-11-29T11:14:35.043Z,16.00
2022-11-29T11:15:35.058Z,14.70
2022-11-29T11:16:37.611Z,13.50
2022-11-29T11:17:35.955Z,12.90
2022-11-29T11:18:34.935Z,11.90
2022-11-29T11:19:34.937Z,15.60
2022-11-29T11:20:34.882Z,17.50
2022-11-29T11:21:34.863Z,17.40
2022-11-29T11:22:34.848Z,12.50
2022-11-29T11:23:37.512Z,12.70
2022-11-29T11:24:36.835Z,13.40
2022-11-29T11:25:34.792Z,13.60
2022-11-29T11:26:34.774Z,14.00
2022-11-29T11:27:34.759Z,13.50
2022-11-29T11:28:34.745Z,13.60
2022-11-29T11:29:34.750Z,13.80
2022-11-29T11:30:34.756Z,15.20
2022-11-29T11:31:34.691Z,15.20
2022-11-29T11:32:34.678Z,13.80
2022-11-29T11:33:34.650Z,13.80
2022-11-29T11:34:34.666Z,13.80
2022-11-29T11:35:34.626Z,14.30
2022-11-29T11:36:34.610Z,13.60
2022-11-29T11:37:34.584Z,14.10
2022-11-29T11:38:34.569Z,14.90
2022-11-29T11:39:34.577Z,15.10
2022-11-29T11:40:34.607Z,15.20
2022-11-29T11:41:34.519Z,12.40
2022-11-29T11:42:34.503Z,12.10
2022-11-29T11:43:34.484Z,13.00
2022-11-29T11:44:49.972Z,13.40
2022-11-29T11:45:36.455Z,13.60
2022-11-29T11:46:34.475Z,13.10
2022-11-29T11:47:34.416Z,19.20
2022-11-29T11:48:34.398Z,18.20
2022-11-29T11:49:34.405Z,17.60
2022-11-29T11:50:34.369Z,17.70
2022-11-29T11:51:34.349Z,16.20
2022-11-29T11:52:39.650Z,14.40
2022-11-29T11:53:36.352Z,13.60
2022-11-29T11:54:34.325Z,14.00
2022-11-29T11:55:34.282Z,12.70
2022-11-29T11:56:34.257Z,13.00
2022-11-29T11:57:34.241Z,13.50
2022-11-29T11:58:34.228Z,13.60
2022-11-29T11:59:34.230Z,12.80
2022-11-29T12:01:01.837Z,12.30
2022-11-29T12:01:36.171Z,12.10
2022-11-29T12:02:34.222Z,13.00
2022-11-29T12:03:34.154Z,13.40
2022-11-29T12:04:34.160Z,11.10
2022-11-29T12:05:34.107Z,11.80
2022-11-29T12:06:34.086Z,12.00
2022-11-29T12:08:06.067Z,12.60
2022-11-29T12:08:36.115Z,12.40
2022-11-29T12:09:34.097Z,12.50
2022-11-29T12:10:34.016Z,12.90
2022-11-29T12:11:33.999Z,12.50
2022-11-29T12:12:33.980Z,12.40
2022-11-29T12:13:33.970Z,11.50
2022-11-29T12:14:33.948Z,11.60
2022-11-29T12:15:33.972Z,11.80
2022-11-29T12:16:33.925Z,12.60
2022-11-29T12:17:33.893Z,13.60
2022-11-29T12:18:33.876Z,14.10
2022-11-29T12:19:33.856Z,15.10
2022-11-29T12:20:33.862Z,11.70
2022-11-29T12:21:33.817Z,10.50
2022-11-29T12:22:33.802Z,11.30
2022-11-29T12:23:33.792Z,12.30
2022-11-29T12:24:33.761Z,12.90
2022-11-29T12:25:33.775Z,14.90
2022-11-29T12:26:56.868Z,13.70
2022-11-29T12:27:35.713Z,14.70
2022-11-29T12:28:33.697Z,17.00
2022-11-29T12:29:33.696Z,12.10
2022-11-29T12:30:36.421Z,11.60
2022-11-29T12:31:33.716Z,10.50
2022-11-29T12:32:33.642Z,10.20
2022-11-29T12:33:33.611Z,10.40
2022-11-29T12:34:33.577Z,10.80
2022-11-29T12:35:33.604Z,10.20
2022-11-29T12:36:33.554Z,9.80
2022-11-29T12:37:33.540Z,10.50
2022-11-29T12:38:33.519Z,10.90
2022-11-29T12:39:33.520Z,12.50
2022-11-29T12:40:33.516Z,13.30
2022-11-29T12:41:33.470Z,17.40
2022-11-29T12:42:33.455Z,26.30
2022-11-29T12:43:33.444Z,22.20
2022-11-29T12:44:33.420Z,17.90
2022-11-29T12:45:33.424Z,15.30
2022-11-29T12:46:33.417Z,15.50
2022-11-29T12:47:36.001Z,16.50
2022-11-29T12:48:34.349Z,15.10
2022-11-29T12:49:33.334Z,14.50
2022-11-29T12:50:33.356Z,14.70
2022-11-29T12:51:33.299Z,14.60
2022-11-29T12:52:33.278Z,14.70
2022-11-29T12:53:33.266Z,16.00
2022-11-29T12:54:33.262Z,17.40
2022-11-29T12:55:33.255Z,15.60
2022-11-29T12:56:33.214Z,20.70
2022-11-29T12:57:33.198Z,15.90
2022-11-29T12:58:33.192Z,16.80